sensor_id;sensor_type;location;lat;lon;timestamp;pressure;altitude;pressure_sealevel;temperature;humidity
53868;BME280;41577;47.470;19.080;2023-06-10T00:00:07;99736.06;;;17.87;100.00
53868;BME280;41577;47.470;19.080;2023-06-10T00:00:26;99749.56;;;17.87;100.00
53868;BME280;41577;47.470;19.080;2023-06-10T00:00:39;99753.09;;;17.87;100.00
53868;BME280;41577;47.470;19.080;2023-06-10T00:00:51;99749.56;;;17.87;100.00
53868;BME280;41577;47.470;19.080;2023-06-10T00:01:03;99752.28;;;17.87;100.00
53868;BME280;41577;47.470;19.080;2023-06-10T00:01:14;99744.16;;;17.87;100.00
53868;BME280;41577;47.470;19.080;2023-06-10T00:01:26;99750.38;;;17.87;100.00
53868;BME280;41577;47.470;19.080;2023-06-10T00:01:38;99752.03;;;17.88;100.00
53868;BME280;41577;47.470;19.080;2023-06-10T00:01:50;99754.97;;;17.87;100.00
53868;BME280;41577;47.470;19.080;2023-06-10T00:02:01;99749.56;;;17.87;100.00
53868;BME280;41577;47.470;19.080;2023-06-10T00:02:13;99753.09;;;17.87;100.00
53868;BME280;41577;47.470;19.080;2023-06-10T00:02:25;99747.91;;;17.86;100.00
53868;BME280;41577;47.470;19.080;2023-06-10T00:02:38;99752.28;;;17.87;100.00
53868;BME280;41577;47.470;19.080;2023-06-10T00:02:50;99744.16;;;17.87;100.00
53868;BME280;41577;47.470;19.080;2023-06-10T00:03:02;99750.38;;;17.87;100.00
53868;BME280;41577;47.470;19.080;2023-06-10T00:03:14;99744.16;;;17.87;100.00
53868;BME280;41577;47.470;19.080;2023-06-10T00:03:26;99749.56;;;17.87;100.00
53868;BME280;41577;47.470;19.080;2023-06-10T00:03:38;99754.97;;;17.87;100.00
53868;BME280;41577;47.470;19.080;2023-06-10T00:03:50;99751.47;;;17.86;100.00
53868;BME280;41577;47.470;19.080;2023-06-10T00:04:02;99749.56;;;17.87;100.00
53868;BME280;41577;47.470;19.080;2023-06-10T00:04:15;99747.69;;;17.87;100.00
53868;BME280;41577;47.470;19.080;2023-06-10T00:04:27;99751.47;;;17.86;100.00
53868;BME280;41577;47.470;19.080;2023-06-10T00:04:38;99746.88;;;17.87;100.00
53868;BME280;41577;47.470;19.080;2023-06-10T00:04:50;99745.22;;;17.86;100.00
53868;BME280;41577;47.470;19.080;2023-06-10T00:05:03;99749.00;;;17.85;100.00
53868;BME280;41577;47.470;19.080;2023-06-10T00:05:15;99747.91;;;17.86;100.00
53868;BME280;41577;47.470;19.080;2023-06-10T00:05:27;99747.09;;;17.85;100.00
53868;BME280;41577;47.470;19.080;2023-06-10T00:05:39;99747.09;;;17.85;100.00
53868;BME280;41577;47.470;19.080;2023-06-10T00:05:50;99746.28;;;17.85;100.00
53868;BME280;41577;47.470;19.080;2023-06-10T00:06:02;99748.75;;;17.86;100.00
53868;BME280;41577;47.470;19.080;2023-06-10T00:06:14;99743.59;;;17.85;100.00
53868;BME280;41577;47.470;19.080;2023-06-10T00:06:26;99748.75;;;17.86;100.00
53868;BME280;41577;47.470;19.080;2023-06-10T00:06:37;99753.31;;;17.86;100.00
53868;BME280;41577;47.470;19.080;2023-06-10T00:06:49;99750.88;;;17.84;100.00
53868;BME280;41577;47.470;19.080;2023-06-10T00:07:02;99745.50;;;17.84;100.00
53868;BME280;41577;47.470;19.080;2023-06-10T00:07:14;99749.25;;;17.83;100.00
53868;BME280;41577;47.470;19.080;2023-06-10T00:07:25;99745.50;;;17.84;100.00
53868;BME280;41577;47.470;19.080;2023-06-10T00:07:37;99744.69;;;17.84;100.00
53868;BME280;41577;47.470;19.080;2023-06-10T00:07:49;99745.72;;;17.83;100.00
53868;BME280;41577;47.470;19.080;2023-06-10T00:08:01;99747.63;;;17.82;100.00
53868;BME280;41577;47.470;19.080;2023-06-10T00:08:12;99744.69;;;17.84;100.00
53868;BME280;41577;47.470;19.080;2023-06-10T00:08:24;99748.44;;;17.83;100.00
53868;BME280;41577;47.470;19.080;2023-06-10T00:08:36;99741.41;;;17.82;100.00
53868;BME280;41577;47.470;19.080;2023-06-10T00:08:47;99742.22;;;17.82;100.00
53868;BME280;41577;47.470;19.080;2023-06-10T00:08:59;99747.63;;;17.82;100.00
53868;BME280;41577;47.470;19.080;2023-06-10T00:09:11;99752.22;;;17.82;100.00
53868;BME280;41577;47.470;19.080;2023-06-10T00:09:23;99748.44;;;17.83;100.00
53868;BME280;41577;47.470;19.080;2023-06-10T00:09:34;99740.56;;;17.81;100.00
53868;BME280;41577;47.470;19.080;2023-06-10T00:09:46;99740.81;;;17.80;100.00
53868;BME280;41577;47.470;19.080;2023-06-10T00:09:58;99739.72;;;17.81;100.00
53868;BME280;41577;47.470;19.080;2023-06-10T00:10:10;99745.97;;;17.81;100.00
53868;BME280;41577;47.470;19.080;2023-06-10T00:10:22;99738.91;;;17.80;100.00
53868;BME280;41577;47.470;19.080;2023-06-10T00:10:33;99746.19;;;17.80;100.00
53868;BME280;41577;47.470;19.080;2023-06-10T00:10:45;99745.41;;;17.79;100.00
53868;BME280;41577;47.470;19.080;2023-06-10T00:10:57;99742.94;;;17.77;100.00
53868;BME280;41577;47.470;19.080;2023-06-10T00:11:09;99746.44;;;17.78;100.00
53868;BME280;41577;47.470;19.080;2023-06-10T00:11:21;99746.44;;;17.78;100.00
53868;BME280;41577;47.470;19.080;2023-06-10T00:11:32;99743.97;;;17.76;100.00
53868;BME280;41577;47.470;19.080;2023-06-10T00:11:44;99739.41;;;17.77;100.00
53868;BME280;41577;47.470;19.080;2023-06-10T00:11:56;99747.53;;;17.77;100.00
53868;BME280;41577;47.470;19.080;2023-06-10T00:12:09;99742.38;;;17.75;100.00
53868;BME280;41577;47.470;19.080;2023-06-10T00:12:21;99743.16;;;17.76;100.00
53868;BME280;41577;47.470;19.080;2023-06-10T00:12:33;99745.06;;;17.75;100.00
53868;BME280;41577;47.470;19.080;2023-06-10T00:12:45;99749.66;;;17.75;100.00
53868;BME280;41577;47.470;19.080;2023-06-10T00:12:56;99747.19;;;17.73;100.00
53868;BME280;41577;47.470;19.080;2023-06-10T00:13:08;99747.19;;;17.73;100.00
53868;BME280;41577;47.470;19.080;2023-06-10T00:13:20;99746.38;;;17.73;100.00
53868;BME280;41577;47.470;19.080;2023-06-10T00:13:32;99741.22;;;17.71;100.00
53868;BME280;41577;47.470;19.080;2023-06-10T00:13:43;99742.03;;;17.72;100.00
53868;BME280;41577;47.470;19.080;2023-06-10T00:13:55;99742.31;;;17.70;100.00
53868;BME280;41577;47.470;19.080;2023-06-10T00:14:07;99743.34;;;17.69;100.00
53868;BME280;41577;47.470;19.080;2023-06-10T00:14:19;99746.06;;;17.69;100.00
53868;BME280;41577;47.470;19.080;2023-06-10T00:14:31;99739.03;;;17.68;100.00
53868;BME280;41577;47.470;19.080;2023-06-10T00:14:43;99740.06;;;17.67;100.00
53868;BME280;41577;47.470;19.080;2023-06-10T00:14:54;99739.25;;;17.67;100.00
53868;BME280;41577;47.470;19.080;2023-06-10T00:15:07;99738.47;;;17.66;100.00
53868;BME280;41577;47.470;19.080;2023-06-10T00:15:19;99744.94;;;17.65;100.00
53868;BME280;41577;47.470;19.080;2023-06-10T00:15:31;99743.84;;;17.66;100.00
53868;BME280;41577;47.470;19.080;2023-06-10T00:15:44;99741.41;;;17.65;100.00
53868;BME280;41577;47.470;19.080;2023-06-10T00:15:56;99743.28;;;17.64;100.00
53868;BME280;41577;47.470;19.080;2023-06-10T00:16:08;99744.38;;;17.63;100.00
53868;BME280;41577;47.470;19.080;2023-06-10T00:16:20;99738.97;;;17.63;100.00
53868;BME280;41577;47.470;19.080;2023-06-10T00:16:32;99746.22;;;17.63;100.00
53868;BME280;41577;47.470;19.080;2023-06-10T00:16:44;99740.81;;;17.63;100.00
53868;BME280;41577;47.470;19.080;2023-06-10T00:16:55;99749.78;;;17.63;100.00
53868;BME280;41577;47.470;19.080;2023-06-10T00:17:07;99745.41;;;17.62;100.00
53868;BME280;41577;47.470;19.080;2023-06-10T00:17:19;99745.41;;;17.62;100.00
53868;BME280;41577;47.470;19.080;2023-06-10T00:17:31;99744.38;;;17.63;100.00
53868;BME280;41577;47.470;19.080;2023-06-10T00:17:42;99750.81;;;17.62;100.00
53868;BME280;41577;47.470;19.080;2023-06-10T00:17:54;99741.09;;;17.61;100.00
53868;BME280;41577;47.470;19.080;2023-06-10T00:18:06;99742.72;;;17.62;100.00
53868;BME280;41577;47.470;19.080;2023-06-10T00:18:18;99741.09;;;17.61;100.00
53868;BME280;41577;47.470;19.080;2023-06-10T00:18:30;99749.19;;;17.61;100.00
53868;BME280;41577;47.470;19.080;2023-06-10T00:18:41;99747.53;;;17.60;100.00
53868;BME280;41577;47.470;19.080;2023-06-10T00:18:53;99742.13;;;17.60;100.00
53868;BME280;41577;47.470;19.080;2023-06-10T00:19:05;99744.03;;;17.60;100.00
53868;BME280;41577;47.470;19.080;2023-06-10T00:19:17;99737.81;;;17.59;100.00
53868;BME280;41577;47.470;19.080;2023-06-10T00:19:31;99744.28;;;17.58;100.00
53868;BME280;41577;47.470;19.080;2023-06-10T00:19:42;99744.28;;;17.58;100.00
53868;BME280;41577;47.470;19.080;2023-06-10T00:19:54;99745.34;;;17.57;100.00
53868;BME280;41577;47.470;19.080;2023-06-10T00:20:07;99741.56;;;17.58;100.00
53868;BME280;41577;47.470;19.080;2023-06-10T00:20:19;99739.72;;;17.59;100.00
53868;BME280;41577;47.470;19.080;2023-06-10T00:20:31;99742.66;;;17.57;100.00
53868;BME280;41577;47.470;19.080;2023-06-10T00:20:43;99748.06;;;17.57;100.00
53868;BME280;41577;47.470;19.080;2023-06-10T00:20:55;99743.69;;;17.56;100.00
53868;BME280;41577;47.470;19.080;2023-06-10T00:21:06;99740.19;;;17.55;100.00
53868;BME280;41577;47.470;19.080;2023-06-10T00:21:18;99743.69;;;17.56;100.00
53868;BME280;41577;47.470;19.080;2023-06-10T00:21:31;99742.88;;;17.55;100.00
53868;BME280;41577;47.470;19.080;2023-06-10T00:21:43;99744.78;;;17.55;100.00
53868;BME280;41577;47.470;19.080;2023-06-10T00:21:56;99740.47;;;17.54;100.00
53868;BME280;41577;47.470;19.080;2023-06-10T00:22:08;99740.47;;;17.54;100.00
53868;BME280;41577;47.470;19.080;2023-06-10T00:22:19;99733.97;;;17.55;100.00
53868;BME280;41577;47.470;19.080;2023-06-10T00:22:31;99742.88;;;17.55;100.00
53868;BME280;41577;47.470;19.080;2023-06-10T00:22:43;99738.00;;;17.52;100.00
53868;BME280;41577;47.470;19.080;2023-06-10T00:22:55;99742.06;;;17.55;100.00
53868;BME280;41577;47.470;19.080;2023-06-10T00:23:06;99735.88;;;17.54;100.00
53868;BME280;41577;47.470;19.080;2023-06-10T00:23:18;99735.06;;;17.54;100.00
53868;BME280;41577;47.470;19.080;2023-06-10T00:23:30;99741.50;;;17.53;100.00
53868;BME280;41577;47.470;19.080;2023-06-10T00:23:41;99738.00;;;17.52;100.00
53868;BME280;41577;47.470;19.080;2023-06-10T00:23:53;99741.50;;;17.53;100.00
53868;BME280;41577;47.470;19.080;2023-06-10T00:24:06;99740.69;;;17.52;100.00
53868;BME280;41577;47.470;19.080;2023-06-10T00:24:18;99739.88;;;17.52;100.00
53868;BME280;41577;47.470;19.080;2023-06-10T00:24:30;99735.53;;;17.51;100.00
53868;BME280;41577;47.470;19.080;2023-06-10T00:24:42;99732.84;;;17.51;100.00
53868;BME280;41577;47.470;19.080;2023-06-10T00:24:54;99740.13;;;17.50;100.00
53868;BME280;41577;47.470;19.080;2023-06-10T00:25:06;99732.84;;;17.51;100.00
53868;BME280;41577;47.470;19.080;2023-06-10T00:25:18;99732.84;;;17.51;100.00
53868;BME280;41577;47.470;19.080;2023-06-10T00:25:30;99740.94;;;17.51;100.00
53868;BME280;41577;47.470;19.080;2023-06-10T00:25:42;99739.31;;;17.50;100.00
53868;BME280;41577;47.470;19.080;2023-06-10T00:25:54;99737.66;;;17.49;100.00
53868;BME280;41577;47.470;19.080;2023-06-10T00:26:05;99733.91;;;17.50;100.00
53868;BME280;41577;47.470;19.080;2023-06-10T00:26:17;99735.81;;;17.49;100.00
53868;BME280;41577;47.470;19.080;2023-06-10T00:26:29;99740.94;;;17.51;100.00
53868;BME280;41577;47.470;19.080;2023-06-10T00:26:41;99742.25;;;17.48;100.00
53868;BME280;41577;47.470;19.080;2023-06-10T00:26:54;99733.91;;;17.50;100.00
53868;BME280;41577;47.470;19.080;2023-06-10T00:27:06;99736.63;;;17.50;100.00
53868;BME280;41577;47.470;19.080;2023-06-10T00:27:18;99734.97;;;17.49;100.00
53868;BME280;41577;47.470;19.080;2023-06-10T00:27:29;99740.34;;;17.49;100.00
53868;BME280;41577;47.470;19.080;2023-06-10T00:27:41;99739.53;;;17.48;100.00
53868;BME280;41577;47.470;19.080;2023-06-10T00:27:53;99741.19;;;17.49;100.00
53868;BME280;41577;47.470;19.080;2023-06-10T00:28:05;99739.31;;;17.50;100.00
53868;BME280;41577;47.470;19.080;2023-06-10T00:28:17;99743.06;;;17.49;100.00
53868;BME280;41577;47.470;19.080;2023-06-10T00:28:28;99744.72;;;17.50;100.00
53868;BME280;41577;47.470;19.080;2023-06-10T00:28:40;99737.66;;;17.49;100.00
53868;BME280;41577;47.470;19.080;2023-06-10T00:28:52;99736.03;;;17.48;100.00
53868;BME280;41577;47.470;19.080;2023-06-10T00:29:05;99744.13;;;17.48;100.00
53868;BME280;41577;47.470;19.080;2023-06-10T00:29:17;99741.44;;;17.48;100.00
53868;BME280;41577;47.470;19.080;2023-06-10T00:29:29;99741.44;;;17.48;100.00
53868;BME280;41577;47.470;19.080;2023-06-10T00:29:40;99742.50;;;17.47;100.00
53868;BME280;41577;47.470;19.080;2023-06-10T00:29:52;99742.50;;;17.47;100.00
53868;BME280;41577;47.470;19.080;2023-06-10T00:30:05;99738.97;;;17.46;100.00
53868;BME280;41577;47.470;19.080;2023-06-10T00:30:17;99747.88;;;17.47;100.00
53868;BME280;41577;47.470;19.080;2023-06-10T00:30:29;99740.06;;;17.45;100.00
53868;BME280;41577;47.470;19.080;2023-06-10T00:30:40;99743.56;;;17.46;100.00
53868;BME280;41577;47.470;19.080;2023-06-10T00:30:56;99744.38;;;17.46;100.00
53868;BME280;41577;47.470;19.080;2023-06-10T00:31:07;99745.44;;;17.45;100.00
53868;BME280;41577;47.470;19.080;2023-06-10T00:31:19;99734.88;;;17.44;100.00
53868;BME280;41577;47.470;19.080;2023-06-10T00:31:31;99738.41;;;17.44;100.00
53868;BME280;41577;47.470;19.080;2023-06-10T00:31:45;99739.25;;;17.45;100.00
53868;BME280;41577;47.470;19.080;2023-06-10T00:31:56;99747.34;;;17.45;100.00
53868;BME280;41577;47.470;19.080;2023-06-10T00:32:08;99736.53;;;17.45;100.00
53868;BME280;41577;47.470;19.080;2023-06-10T00:32:20;99737.34;;;17.45;100.00
53868;BME280;41577;47.470;19.080;2023-06-10T00:32:32;99744.66;;;17.45;100.00
53868;BME280;41577;47.470;19.080;2023-06-10T00:32:45;99740.28;;;17.44;100.00
53868;BME280;41577;47.470;19.080;2023-06-10T00:32:57;99737.59;;;17.44;100.00
53868;BME280;41577;47.470;19.080;2023-06-10T00:33:09;99739.72;;;17.42;100.00
53868;BME280;41577;47.470;19.080;2023-06-10T00:33:21;99747.56;;;17.43;100.00
53868;BME280;41577;47.470;19.080;2023-06-10T00:33:32;99743.22;;;17.42;100.00
53868;BME280;41577;47.470;19.080;2023-06-10T00:33:44;99740.53;;;17.42;100.00
53868;BME280;41577;47.470;19.080;2023-06-10T00:33:56;99741.59;;;17.41;100.00
53868;BME280;41577;47.470;19.080;2023-06-10T00:34:08;99739.16;;;17.40;100.00
53868;BME280;41577;47.470;19.080;2023-06-10T00:34:20;99738.34;;;17.39;100.00
53868;BME280;41577;47.470;19.080;2023-06-10T00:34:31;99743.72;;;17.39;100.00
53868;BME280;41577;47.470;19.080;2023-06-10T00:34:43;99734.56;;;17.40;100.00
53868;BME280;41577;47.470;19.080;2023-06-10T00:34:55;99737.53;;;17.39;100.00
53868;BME280;41577;47.470;19.080;2023-06-10T00:35:08;99737.53;;;17.39;100.00
53868;BME280;41577;47.470;19.080;2023-06-10T00:35:20;99740.22;;;17.39;100.00
53868;BME280;41577;47.470;19.080;2023-06-10T00:35:32;99748.31;;;17.39;100.00
53868;BME280;41577;47.470;19.080;2023-06-10T00:35:44;99741.28;;;17.38;100.00
53868;BME280;41577;47.470;19.080;2023-06-10T00:35:56;99740.47;;;17.37;100.00
53868;BME280;41577;47.470;19.080;2023-06-10T00:36:08;99745.84;;;17.37;100.00
53868;BME280;41577;47.470;19.080;2023-06-10T00:36:20;99742.34;;;17.37;100.00
53868;BME280;41577;47.470;19.080;2023-06-10T00:36:32;99736.13;;;17.36;100.00
53868;BME280;41577;47.470;19.080;2023-06-10T00:36:43;99745.03;;;17.37;100.00
53868;BME280;41577;47.470;19.080;2023-06-10T00:36:55;99745.03;;;17.37;100.00
53868;BME280;41577;47.470;19.080;2023-06-10T00:37:07;99744.25;;;17.36;100.00
53868;BME280;41577;47.470;19.080;2023-06-10T00:37:19;99740.69;;;17.35;100.00
53868;BME280;41577;47.470;19.080;2023-06-10T00:37:30;99744.25;;;17.36;100.00
53868;BME280;41577;47.470;19.080;2023-06-10T00:37:42;99738.25;;;17.34;100.00
53868;BME280;41577;47.470;19.080;2023-06-10T00:37:54;99744.47;;;17.34;100.00
53868;BME280;41577;47.470;19.080;2023-06-10T00:38:06;99743.41;;;17.35;100.00
53868;BME280;41577;47.470;19.080;2023-06-10T00:38:17;99738.25;;;17.34;100.00
53868;BME280;41577;47.470;19.080;2023-06-10T00:38:29;99746.38;;;17.34;100.00
53868;BME280;41577;47.470;19.080;2023-06-10T00:38:41;99739.31;;;17.33;100.00
53868;BME280;41577;47.470;19.080;2023-06-10T00:38:53;99740.16;;;17.33;100.00
53868;BME280;41577;47.470;19.080;2023-06-10T00:39:05;99741.19;;;17.32;100.00
53868;BME280;41577;47.470;19.080;2023-06-10T00:39:17;99736.63;;;17.33;100.00
53868;BME280;41577;47.470;19.080;2023-06-10T00:39:28;99743.09;;;17.32;100.00
53868;BME280;41577;47.470;19.080;2023-06-10T00:39:40;99743.31;;;17.30;100.00
53868;BME280;41577;47.470;19.080;2023-06-10T00:39:52;99743.31;;;17.30;100.00
53868;BME280;41577;47.470;19.080;2023-06-10T00:40:05;99739.00;;;17.29;100.00
53868;BME280;41577;47.470;19.080;2023-06-10T00:40:17;99748.72;;;17.30;100.00
53868;BME280;41577;47.470;19.080;2023-06-10T00:40:29;99733.03;;;17.27;100.00
53868;BME280;41577;47.470;19.080;2023-06-10T00:40:42;99741.44;;;17.31;100.00
53868;BME280;41577;47.470;19.080;2023-06-10T00:40:54;99735.72;;;17.27;100.00
53868;BME280;41577;47.470;19.080;2023-06-10T00:41:06;99742.75;;;17.28;100.00
53868;BME280;41577;47.470;19.080;2023-06-10T00:41:18;99741.94;;;17.28;100.00
53868;BME280;41577;47.470;19.080;2023-06-10T00:41:30;99735.72;;;17.27;100.00
53868;BME280;41577;47.470;19.080;2023-06-10T00:41:42;99737.34;;;17.28;100.00
53868;BME280;41577;47.470;19.080;2023-06-10T00:41:55;99741.94;;;17.28;100.00
53868;BME280;41577;47.470;19.080;2023-06-10T00:42:08;99743.84;;;17.27;100.00
53868;BME280;41577;47.470;19.080;2023-06-10T00:42:19;99742.19;;;17.26;100.00
53868;BME280;41577;47.470;19.080;2023-06-10T00:42:32;99747.56;;;17.26;100.00
53868;BME280;41577;47.470;19.080;2023-06-10T00:42:44;99745.72;;;17.27;100.00
53868;BME280;41577;47.470;19.080;2023-06-10T00:42:55;99738.66;;;17.26;100.00
53868;BME280;41577;47.470;19.080;2023-06-10T00:43:07;99744.06;;;17.26;100.00
53868;BME280;41577;47.470;19.080;2023-06-10T00:43:19;99747.56;;;17.26;100.00
53868;BME280;41577;47.470;19.080;2023-06-10T00:43:31;99739.47;;;17.26;100.00
53868;BME280;41577;47.470;19.080;2023-06-10T00:43:42;99740.31;;;17.27;100.00
53868;BME280;41577;47.470;19.080;2023-06-10T00:43:54;99744.88;;;17.26;100.00
53868;BME280;41577;47.470;19.080;2023-06-10T00:44:06;99739.47;;;17.26;100.00
53868;BME280;41577;47.470;19.080;2023-06-10T00:44:18;99746.75;;;17.26;100.00
53868;BME280;41577;47.470;19.080;2023-06-10T00:44:30;99745.94;;;17.25;100.00
53868;BME280;41577;47.470;19.080;2023-06-10T00:44:41;99743.25;;;17.25;100.00
53868;BME280;41577;47.470;19.080;2023-06-10T00:44:54;99743.50;;;17.24;100.00
53868;BME280;41577;47.470;19.080;2023-06-10T00:45:06;99744.56;;;17.23;100.00
53868;BME280;41577;47.470;19.080;2023-06-10T00:45:20;99752.44;;;17.24;100.00
53868;BME280;41577;47.470;19.080;2023-06-10T00:45:32;99745.13;;;17.25;100.00
53868;BME280;41577;47.470;19.080;2023-06-10T00:45:44;99755.94;;;17.25;100.00
53868;BME280;41577;47.470;19.080;2023-06-10T00:45:57;99756.97;;;17.24;100.00
53868;BME280;41577;47.470;19.080;2023-06-10T00:46:09;99751.00;;;17.22;100.00
53868;BME280;41577;47.470;19.080;2023-06-10T00:46:22;99754.28;;;17.24;100.00
53868;BME280;41577;47.470;19.080;2023-06-10T00:46:35;99755.34;;;17.23;100.00
53868;BME280;41577;47.470;19.080;2023-06-10T00:46:47;99752.66;;;17.23;100.00
53868;BME280;41577;47.470;19.080;2023-06-10T00:46:59;99754.78;;;17.21;100.00
53868;BME280;41577;47.470;19.080;2023-06-10T00:47:12;99749.38;;;17.21;100.00
53868;BME280;41577;47.470;19.080;2023-06-10T00:47:25;99747.50;;;17.21;100.00
53868;BME280;41577;47.470;19.080;2023-06-10T00:47:37;99754.78;;;17.21;100.00
53868;BME280;41577;47.470;19.080;2023-06-10T00:47:49;99752.09;;;17.21;100.00
53868;BME280;41577;47.470;19.080;2023-06-10T00:48:02;99750.47;;;17.20;100.00
53868;BME280;41577;47.470;19.080;2023-06-10T00:48:15;99747.78;;;17.20;100.00
53868;BME280;41577;47.470;19.080;2023-06-10T00:48:27;99753.16;;;17.20;100.00
53868;BME280;41577;47.470;19.080;2023-06-10T00:48:42;99753.16;;;17.20;100.00
53868;BME280;41577;47.470;19.080;2023-06-10T00:48:54;99752.31;;;17.19;100.00
53868;BME280;41577;47.470;19.080;2023-06-10T00:49:06;99757.72;;;17.19;100.00
53868;BME280;41577;47.470;19.080;2023-06-10T00:49:18;99760.41;;;17.19;100.00
53868;BME280;41577;47.470;19.080;2023-06-10T00:49:30;99751.50;;;17.19;100.00
53868;BME280;41577;47.470;19.080;2023-06-10T00:49:42;99756.09;;;17.18;100.00
53868;BME280;41577;47.470;19.080;2023-06-10T00:49:55;99760.41;;;17.19;100.00
53868;BME280;41577;47.470;19.080;2023-06-10T00:50:08;99750.69;;;17.18;100.00
53868;BME280;41577;47.470;19.080;2023-06-10T00:50:20;99755.03;;;17.19;100.00
53868;BME280;41577;47.470;19.080;2023-06-10T00:50:32;99752.59;;;17.18;100.00
53868;BME280;41577;47.470;19.080;2023-06-10T00:50:45;99756.09;;;17.18;100.00
53868;BME280;41577;47.470;19.080;2023-06-10T00:50:57;99756.34;;;17.17;100.00
53868;BME280;41577;47.470;19.080;2023-06-10T00:51:09;99757.97;;;17.18;100.00
53868;BME280;41577;47.470;19.080;2023-06-10T00:51:22;99755.28;;;17.18;100.00
53868;BME280;41577;47.470;19.080;2023-06-10T00:51:34;99754.44;;;17.17;100.00
53868;BME280;41577;47.470;19.080;2023-06-10T00:51:46;99754.72;;;17.16;100.00
53868;BME280;41577;47.470;19.080;2023-06-10T00:51:59;99755.53;;;17.16;100.00
53868;BME280;41577;47.470;19.080;2023-06-10T00:52:11;99760.09;;;17.16;100.00
53868;BME280;41577;47.470;19.080;2023-06-10T00:52:28;99756.56;;;17.15;100.00
53868;BME280;41577;47.470;19.080;2023-06-10T00:52:40;99756.56;;;17.15;100.00
53868;BME280;41577;47.470;19.080;2023-06-10T00:52:53;99760.34;;;17.14;100.00
53868;BME280;41577;47.470;19.080;2023-06-10T00:53:06;99753.31;;;17.13;100.00
53868;BME280;41577;47.470;19.080;2023-06-10T00:53:18;99754.94;;;17.14;100.00
53868;BME280;41577;47.470;19.080;2023-06-10T00:53:30;99754.13;;;17.13;100.00
53868;BME280;41577;47.470;19.080;2023-06-10T00:53:42;99757.66;;;17.14;100.00
53868;BME280;41577;47.470;19.080;2023-06-10T00:53:55;99759.53;;;17.13;100.00
53868;BME280;41577;47.470;19.080;2023-06-10T00:54:08;99754.13;;;17.13;100.00
53868;BME280;41577;47.470;19.080;2023-06-10T00:54:19;99753.31;;;17.13;100.00
53868;BME280;41577;47.470;19.080;2023-06-10T00:54:32;99754.13;;;17.13;100.00
53868;BME280;41577;47.470;19.080;2023-06-10T00:54:44;99754.38;;;17.12;100.00
53868;BME280;41577;47.470;19.080;2023-06-10T00:54:56;99748.97;;;17.12;100.00
53868;BME280;41577;47.470;19.080;2023-06-10T00:55:08;99748.41;;;17.10;100.00
53868;BME280;41577;47.470;19.080;2023-06-10T00:55:21;99751.91;;;17.10;100.00
53868;BME280;41577;47.470;19.080;2023-06-10T00:55:33;99754.38;;;17.12;100.00
53868;BME280;41577;47.470;19.080;2023-06-10T00:55:46;99753.56;;;17.11;100.00
53868;BME280;41577;47.470;19.080;2023-06-10T00:55:58;99753.56;;;17.11;100.00
53868;BME280;41577;47.470;19.080;2023-06-10T00:56:10;99758.16;;;17.11;100.00
53868;BME280;41577;47.470;19.080;2023-06-10T00:56:22;99752.75;;;17.11;100.00
53868;BME280;41577;47.470;19.080;2023-06-10T00:56:34;99756.50;;;17.10;100.00
53868;BME280;41577;47.470;19.080;2023-06-10T00:56:47;99755.44;;;17.11;100.00
53868;BME280;41577;47.470;19.080;2023-06-10T00:57:01;99751.91;;;17.10;100.00
53868;BME280;41577;47.470;19.080;2023-06-10T00:57:13;99754.88;;;17.09;100.00
53868;BME280;41577;47.470;19.080;2023-06-10T00:57:25;99756.50;;;17.10;100.00
53868;BME280;41577;47.470;19.080;2023-06-10T00:57:36;99755.69;;;17.09;100.00
53868;BME280;41577;47.470;19.080;2023-06-10T00:57:48;99755.69;;;17.09;100.00
53868;BME280;41577;47.470;19.080;2023-06-10T00:58:01;99749.47;;;17.09;100.00
53868;BME280;41577;47.470;19.080;2023-06-10T00:58:14;99753.22;;;17.08;100.00
53868;BME280;41577;47.470;19.080;2023-06-10T00:58:26;99753.22;;;17.08;100.00
53868;BME280;41577;47.470;19.080;2023-06-10T00:58:38;99757.81;;;17.07;100.00
53868;BME280;41577;47.470;19.080;2023-06-10T00:58:50;99753.22;;;17.08;100.00
53868;BME280;41577;47.470;19.080;2023-06-10T00:59:02;99746.19;;;17.07;100.00
53868;BME280;41577;47.470;19.080;2023-06-10T00:59:14;99754.28;;;17.07;100.00
53868;BME280;41577;47.470;19.080;2023-06-10T00:59:25;99758.88;;;17.06;100.00
53868;BME280;41577;47.470;19.080;2023-06-10T00:59:38;99751.59;;;17.07;100.00
53868;BME280;41577;47.470;19.080;2023-06-10T01:00:10;99749.94;;;17.06;100.00
53868;BME280;41577;47.470;19.080;2023-06-10T01:00:21;99752.91;;;17.04;100.00
53868;BME280;41577;47.470;19.080;2023-06-10T01:00:33;99751.84;;;17.05;100.00
53868;BME280;41577;47.470;19.080;2023-06-10T01:00:47;99747.25;;;17.06;100.00
53868;BME280;41577;47.470;19.080;2023-06-10T01:01:00;99752.66;;;17.06;100.00
53868;BME280;41577;47.470;19.080;2023-06-10T01:01:12;99751.03;;;17.05;100.00
53868;BME280;41577;47.470;19.080;2023-06-10T01:01:23;99749.41;;;17.04;100.00
53868;BME280;41577;47.470;19.080;2023-06-10T01:01:35;99756.41;;;17.05;100.00
53868;BME280;41577;47.470;19.080;2023-06-10T01:01:47;99750.22;;;17.04;100.00
53868;BME280;41577;47.470;19.080;2023-06-10T01:02:00;99752.09;;;17.04;100.00
53868;BME280;41577;47.470;19.080;2023-06-10T01:02:13;99756.41;;;17.05;100.00
53868;BME280;41577;47.470;19.080;2023-06-10T01:02:25;99746.94;;;17.02;100.00
53868;BME280;41577;47.470;19.080;2023-06-10T01:02:37;99753.13;;;17.03;100.00
53868;BME280;41577;47.470;19.080;2023-06-10T01:02:49;99745.28;;;17.01;100.00